sensor_id;sensor_type;location;lat;lon;timestamp;temperature;humidity
26589;DHT22;14235;48.532;8.722;2023-06-10T00:02:20;16.90;85.40
26589;DHT22;14235;48.532;8.722;2023-06-10T00:04:46;16.80;85.30
26589;DHT22;14235;48.532;8.722;2023-06-10T00:07:12;16.90;88.00
26589;DHT22;14235;48.532;8.722;2023-06-10T00:09:38;16.80;88.70
26589;DHT22;14235;48.532;8.722;2023-06-10T00:12:04;16.80;90.00
26589;DHT22;14235;48.532;8.722;2023-06-10T00:14:30;16.80;86.40
26589;DHT22;14235;48.532;8.722;2023-06-10T00:16:56;16.70;82.90
26589;DHT22;14235;48.532;8.722;2023-06-10T00:21:51;16.50;80.90
26589;DHT22;14235;48.532;8.722;2023-06-10T00:24:18;16.50;85.10
26589;DHT22;14235;48.532;8.722;2023-06-10T00:26:44;16.60;85.40
26589;DHT22;14235;48.532;8.722;2023-06-10T00:29:10;16.40;85.00
26589;DHT22;14235;48.532;8.722;2023-06-10T00:31:37;16.40;85.30
26589;DHT22;14235;48.532;8.722;2023-06-10T00:34:03;16.30;85.70
26589;DHT22;14235;48.532;8.722;2023-06-10T00:36:28;16.30;86.90
26589;DHT22;14235;48.532;8.722;2023-06-10T00:38:54;16.20;87.80
26589;DHT22;14235;48.532;8.722;2023-06-10T00:41:20;16.40;89.90
26589;DHT22;14235;48.532;8.722;2023-06-10T00:43:45;16.30;90.00
26589;DHT22;14235;48.532;8.722;2023-06-10T00:46:12;16.20;90.00
26589;DHT22;14235;48.532;8.722;2023-06-10T00:48:40;16.40;90.40
26589;DHT22;14235;48.532;8.722;2023-06-10T00:51:06;16.20;90.50
26589;DHT22;14235;48.532;8.722;2023-06-10T00:53:40;16.30;90.60
26589;DHT22;14235;48.532;8.722;2023-06-10T00:56:07;16.10;90.50
26589;DHT22;14235;48.532;8.722;2023-06-10T00:58:32;16.00;90.80
26589;DHT22;14235;48.532;8.722;2023-06-10T01:00:58;15.90;91.20
26589;DHT22;14235;48.532;8.722;2023-06-10T01:03:24;15.70;91.50
26589;DHT22;14235;48.532;8.722;2023-06-10T01:05:57;15.60;91.80
26589;DHT22;14235;48.532;8.722;2023-06-10T01:26:12;15.50;97.60
26589;DHT22;14235;48.532;8.722;2023-06-10T01:31:42;15.60;99.60
26589;DHT22;14235;48.532;8.722;2023-06-10T01:34:11;15.60;95.00
26589;DHT22;14235;48.532;8.722;2023-06-10T01:39:04;15.40;96.90
26589;DHT22;14235;48.532;8.722;2023-06-10T01:41:31;15.50;97.50
26589;DHT22;14235;48.532;8.722;2023-06-10T01:43:57;15.40;97.50
26589;DHT22;14235;48.532;8.722;2023-06-10T01:46:23;15.60;98.10
26589;DHT22;14235;48.532;8.722;2023-06-10T01:48:49;15.50;97.50
26589;DHT22;14235;48.532;8.722;2023-06-10T01:53:40;15.30;98.80
26589;DHT22;14235;48.532;8.722;2023-06-10T01:56:06;15.30;99.40
26589;DHT22;14235;48.532;8.722;2023-06-10T01:58:31;15.30;99.80
26589;DHT22;14235;48.532;8.722;2023-06-10T02:05:49;15.20;99.90
26589;DHT22;14235;48.532;8.722;2023-06-10T02:08:15;15.20;99.90
26589;DHT22;14235;48.532;8.722;2023-06-10T02:10:40;14.90;99.90
26589;DHT22;14235;48.532;8.722;2023-06-10T02:13:06;14.90;99.90
26589;DHT22;14235;48.532;8.722;2023-06-10T02:20:25;14.90;99.90
26589;DHT22;14235;48.532;8.722;2023-06-10T02:22:50;14.90;99.90
26589;DHT22;14235;48.532;8.722;2023-06-10T02:25:16;14.90;99.90
26589;DHT22;14235;48.532;8.722;2023-06-10T02:27:41;14.80;99.90
26589;DHT22;14235;48.532;8.722;2023-06-10T02:30:07;14.70;99.90
26589;DHT22;14235;48.532;8.722;2023-06-10T02:32:35;14.70;99.90
26589;DHT22;14235;48.532;8.722;2023-06-10T02:35:01;14.70;99.90
26589;DHT22;14235;48.532;8.722;2023-06-10T02:37:26;14.70;99.80
26589;DHT22;14235;48.532;8.722;2023-06-10T02:39:52;14.70;99.70
26589;DHT22;14235;48.532;8.722;2023-06-10T02:42:18;14.80;98.70
26589;DHT22;14235;48.532;8.722;2023-06-10T02:44:43;14.70;98.40
26589;DHT22;14235;48.532;8.722;2023-06-10T02:47:09;14.70;98.20
26589;DHT22;14235;48.532;8.722;2023-06-10T02:49:34;14.60;98.00
26589;DHT22;14235;48.532;8.722;2023-06-10T02:52:01;14.60;97.70
26589;DHT22;14235;48.532;8.722;2023-06-10T02:54:27;14.70;98.00
26589;DHT22;14235;48.532;8.722;2023-06-10T02:56:53;14.60;97.70
26589;DHT22;14235;48.532;8.722;2023-06-10T02:59:21;14.60;97.90
26589;DHT22;14235;48.532;8.722;2023-06-10T03:01:46;14.60;97.50
26589;DHT22;14235;48.532;8.722;2023-06-10T03:04:12;14.50;97.70
26589;DHT22;14235;48.532;8.722;2023-06-10T03:06:41;14.50;97.90
26589;DHT22;14235;48.532;8.722;2023-06-10T03:09:06;14.40;97.60
26589;DHT22;14235;48.532;8.722;2023-06-10T03:11:35;14.40;97.40
26589;DHT22;14235;48.532;8.722;2023-06-10T03:14:01;14.40;97.50
26589;DHT22;14235;48.532;8.722;2023-06-10T03:16:26;14.20;97.30
26589;DHT22;14235;48.532;8.722;2023-06-10T03:18:53;14.10;97.40
26589;DHT22;14235;48.532;8.722;2023-06-10T03:21:18;14.20;97.70
26589;DHT22;14235;48.532;8.722;2023-06-10T03:23:44;14.30;97.80
26589;DHT22;14235;48.532;8.722;2023-06-10T03:26:11;14.10;97.70
26589;DHT22;14235;48.532;8.722;2023-06-10T03:28:37;14.30;97.50
26589;DHT22;14235;48.532;8.722;2023-06-10T03:31:03;14.20;97.40
26589;DHT22;14235;48.532;8.722;2023-06-10T03:33:28;14.30;98.00
26589;DHT22;14235;48.532;8.722;2023-06-10T03:35:54;14.10;97.70
26589;DHT22;14235;48.532;8.722;2023-06-10T03:38:19;14.20;97.80
26589;DHT22;14235;48.532;8.722;2023-06-10T03:40:45;14.00;98.00
26589;DHT22;14235;48.532;8.722;2023-06-10T03:43:11;14.00;98.00
26589;DHT22;14235;48.532;8.722;2023-06-10T03:45:36;13.90;96.60
26589;DHT22;14235;48.532;8.722;2023-06-10T03:48:02;13.90;96.80
26589;DHT22;14235;48.532;8.722;2023-06-10T03:50:28;13.90;96.40
26589;DHT22;14235;48.532;8.722;2023-06-10T03:52:54;14.00;95.60
26589;DHT22;14235;48.532;8.722;2023-06-10T03:55:20;14.00;95.80
26589;DHT22;14235;48.532;8.722;2023-06-10T03:57:47;13.90;96.40
26589;DHT22;14235;48.532;8.722;2023-06-10T04:00:15;14.00;96.50
26589;DHT22;14235;48.532;8.722;2023-06-10T04:02:41;13.90;97.10
26589;DHT22;14235;48.532;8.722;2023-06-10T04:05:15;14.00;97.10
26589;DHT22;14235;48.532;8.722;2023-06-10T04:07:42;14.00;96.80
26589;DHT22;14235;48.532;8.722;2023-06-10T04:10:09;13.90;97.00
26589;DHT22;14235;48.532;8.722;2023-06-10T04:12:36;13.90;96.80
26589;DHT22;14235;48.532;8.722;2023-06-10T04:15:02;13.80;96.30
26589;DHT22;14235;48.532;8.722;2023-06-10T04:17:28;13.80;97.20
26589;DHT22;14235;48.532;8.722;2023-06-10T04:19:53;13.90;96.80
26589;DHT22;14235;48.532;8.722;2023-06-10T04:22:20;13.90;97.50
26589;DHT22;14235;48.532;8.722;2023-06-10T04:24:46;13.90;97.60
26589;DHT22;14235;48.532;8.722;2023-06-10T04:27:11;14.10;96.40
26589;DHT22;14235;48.532;8.722;2023-06-10T04:29:37;14.00;96.90
26589;DHT22;14235;48.532;8.722;2023-06-10T04:32:03;14.00;97.20
26589;DHT22;14235;48.532;8.722;2023-06-10T04:36:56;13.80;97.70
26589;DHT22;14235;48.532;8.722;2023-06-10T04:39:22;13.90;99.90
26589;DHT22;14235;48.532;8.722;2023-06-10T04:41:48;13.80;99.90
26589;DHT22;14235;48.532;8.722;2023-06-10T04:44:14;13.80;99.90
26589;DHT22;14235;48.532;8.722;2023-06-10T04:46:39;13.20;99.90
26589;DHT22;14235;48.532;8.722;2023-06-10T04:49:05;13.80;99.90
26589;DHT22;14235;48.532;8.722;2023-06-10T04:51:31;14.10;99.90
26589;DHT22;14235;48.532;8.722;2023-06-10T04:54:00;13.90;99.90
26589;DHT22;14235;48.532;8.722;2023-06-10T04:56:29;14.10;99.90
26589;DHT22;14235;48.532;8.722;2023-06-10T04:58:56;14.10;99.90
26589;DHT22;14235;48.532;8.722;2023-06-10T05:01:21;14.10;99.90
26589;DHT22;14235;48.532;8.722;2023-06-10T05:03:47;14.20;99.90
26589;DHT22;14235;48.532;8.722;2023-06-10T05:06:13;14.20;99.90
26589;DHT22;14235;48.532;8.722;2023-06-10T05:08:38;14.40;99.90
26589;DHT22;14235;48.532;8.722;2023-06-10T05:11:04;14.40;99.90
26589;DHT22;14235;48.532;8.722;2023-06-10T05:13:29;14.30;99.90
26589;DHT22;14235;48.532;8.722;2023-06-10T05:15:55;14.30;99.90
26589;DHT22;14235;48.532;8.722;2023-06-10T05:18:20;14.40;99.90
26589;DHT22;14235;48.532;8.722;2023-06-10T05:20:46;14.40;99.90
26589;DHT22;14235;48.532;8.722;2023-06-10T05:23:12;14.40;99.90
26589;DHT22;14235;48.532;8.722;2023-06-10T05:25:37;14.50;99.90
26589;DHT22;14235;48.532;8.722;2023-06-10T05:28:03;14.70;99.90
26589;DHT22;14235;48.532;8.722;2023-06-10T05:30:29;14.60;99.90
26589;DHT22;14235;48.532;8.722;2023-06-10T05:32:54;14.80;99.90
26589;DHT22;14235;48.532;8.722;2023-06-10T05:35:21;14.80;99.90
26589;DHT22;14235;48.532;8.722;2023-06-10T05:37:47;14.90;99.90
26589;DHT22;14235;48.532;8.722;2023-06-10T05:40:12;14.90;99.90
26589;DHT22;14235;48.532;8.722;2023-06-10T05:42:38;15.10;99.90
26589;DHT22;14235;48.532;8.722;2023-06-10T05:45:05;15.10;99.90
26589;DHT22;14235;48.532;8.722;2023-06-10T05:47:31;15.00;99.90
26589;DHT22;14235;48.532;8.722;2023-06-10T05:49:57;15.10;99.90
26589;DHT22;14235;48.532;8.722;2023-06-10T05:52:22;15.20;99.90
26589;DHT22;14235;48.532;8.722;2023-06-10T05:54:49;15.40;99.70
26589;DHT22;14235;48.532;8.722;2023-06-10T05:57:15;15.40;99.80
26589;DHT22;14235;48.532;8.722;2023-06-10T05:59:40;15.40;99.90
26589;DHT22;14235;48.532;8.722;2023-06-10T06:02:06;15.50;99.90
26589;DHT22;14235;48.532;8.722;2023-06-10T06:04:32;15.60;99.90
26589;DHT22;14235;48.532;8.722;2023-06-10T06:06:57;15.70;99.90
26589;DHT22;14235;48.532;8.722;2023-06-10T06:09:23;15.80;99.60
26589;DHT22;14235;48.532;8.722;2023-06-10T06:11:49;15.90;99.90
26589;DHT22;14235;48.532;8.722;2023-06-10T06:14:14;16.00;99.90
26589;DHT22;14235;48.532;8.722;2023-06-10T06:16:40;16.00;99.90
26589;DHT22;14235;48.532;8.722;2023-06-10T06:19:05;16.10;99.90
26589;DHT22;14235;48.532;8.722;2023-06-10T06:21:31;16.10;99.90
26589;DHT22;14235;48.532;8.722;2023-06-10T06:23:56;16.20;99.90
26589;DHT22;14235;48.532;8.722;2023-06-10T06:28:49;16.30;99.90
26589;DHT22;14235;48.532;8.722;2023-06-10T06:31:14;16.40;99.90
26589;DHT22;14235;48.532;8.722;2023-06-10T06:33:40;16.50;99.90
26589;DHT22;14235;48.532;8.722;2023-06-10T06:36:05;16.50;99.90
26589;DHT22;14235;48.532;8.722;2023-06-10T06:38:31;16.60;99.90
26589;DHT22;14235;48.532;8.722;2023-06-10T06:40:57;16.80;99.90
26589;DHT22;14235;48.532;8.722;2023-06-10T06:43:28;16.80;99.90
26589;DHT22;14235;48.532;8.722;2023-06-10T06:45:54;16.90;99.90
26589;DHT22;14235;48.532;8.722;2023-06-10T06:48:19;17.10;99.60
26589;DHT22;14235;48.532;8.722;2023-06-10T06:50:46;17.00;99.30
26589;DHT22;14235;48.532;8.722;2023-06-10T06:53:12;17.20;99.30
26589;DHT22;14235;48.532;8.722;2023-06-10T06:55:37;17.20;99.10
26589;DHT22;14235;48.532;8.722;2023-06-10T06:58:03;17.20;99.00
26589;DHT22;14235;48.532;8.722;2023-06-10T07:00:29;17.30;99.10
26589;DHT22;14235;48.532;8.722;2023-06-10T07:02:55;17.40;99.10
26589;DHT22;14235;48.532;8.722;2023-06-10T07:05:23;16.80;99.00
26589;DHT22;14235;48.532;8.722;2023-06-10T07:07:50;17.60;99.40
26589;DHT22;14235;48.532;8.722;2023-06-10T07:10:23;17.70;99.90
26589;DHT22;14235;48.532;8.722;2023-06-10T07:12:49;17.70;99.90
26589;DHT22;14235;48.532;8.722;2023-06-10T07:15:15;17.80;99.90
26589;DHT22;14235;48.532;8.722;2023-06-10T07:17:41;17.80;99.90
26589;DHT22;14235;48.532;8.722;2023-06-10T07:20:07;17.90;99.90
26589;DHT22;14235;48.532;8.722;2023-06-10T07:22:33;18.00;99.90
26589;DHT22;14235;48.532;8.722;2023-06-10T07:24:58;18.10;99.90
26589;DHT22;14235;48.532;8.722;2023-06-10T07:27:24;18.20;99.90
26589;DHT22;14235;48.532;8.722;2023-06-10T07:29:51;18.30;99.90
26589;DHT22;14235;48.532;8.722;2023-06-10T07:32:17;18.40;96.90
26589;DHT22;14235;48.532;8.722;2023-06-10T07:34:43;18.40;96.90
26589;DHT22;14235;48.532;8.722;2023-06-10T07:37:08;18.60;96.80
26589;DHT22;14235;48.532;8.722;2023-06-10T07:39:34;18.60;96.50
26589;DHT22;14235;48.532;8.722;2023-06-10T07:42:00;18.70;96.40
26589;DHT22;14235;48.532;8.722;2023-06-10T07:44:26;18.80;96.10
26589;DHT22;14235;48.532;8.722;2023-06-10T07:46:51;18.90;96.30
26589;DHT22;14235;48.532;8.722;2023-06-10T07:49:17;19.00;96.00
26589;DHT22;14235;48.532;8.722;2023-06-10T07:51:43;19.30;96.10
26589;DHT22;14235;48.532;8.722;2023-06-10T07:54:08;19.20;95.80
26589;DHT22;14235;48.532;8.722;2023-06-10T07:56:34;19.40;95.70
26589;DHT22;14235;48.532;8.722;2023-06-10T07:58:59;19.40;95.90
26589;DHT22;14235;48.532;8.722;2023-06-10T08:01:25;19.60;95.60
26589;DHT22;14235;48.532;8.722;2023-06-10T08:03:51;19.50;95.40
26589;DHT22;14235;48.532;8.722;2023-06-10T08:06:16;19.70;95.50
26589;DHT22;14235;48.532;8.722;2023-06-10T08:08:43;19.60;95.40
26589;DHT22;14235;48.532;8.722;2023-06-10T08:11:12;19.70;95.20
26589;DHT22;14235;48.532;8.722;2023-06-10T08:19:14;20.00;95.80
26589;DHT22;14235;48.532;8.722;2023-06-10T08:22:33;20.00;95.90
26589;DHT22;14235;48.532;8.722;2023-06-10T08:25:47;20.00;96.00
26589;DHT22;14235;48.532;8.722;2023-06-10T08:28:28;20.10;95.80
26589;DHT22;14235;48.532;8.722;2023-06-10T08:30:56;20.20;95.90
26589;DHT22;14235;48.532;8.722;2023-06-10T08:33:22;20.30;96.10
26589;DHT22;14235;48.532;8.722;2023-06-10T08:35:48;20.30;96.30
26589;DHT22;14235;48.532;8.722;2023-06-10T08:38:16;20.40;97.10
26589;DHT22;14235;48.532;8.722;2023-06-10T08:40:47;20.40;98.40
26589;DHT22;14235;48.532;8.722;2023-06-10T08:50:26;20.60;93.20
26589;DHT22;14235;48.532;8.722;2023-06-10T08:52:41;20.70;93.10
26589;DHT22;14235;48.532;8.722;2023-06-10T08:58:08;20.90;92.00
26589;DHT22;14235;48.532;8.722;2023-06-10T09:00:39;20.90;91.70
26589;DHT22;14235;48.532;8.722;2023-06-10T09:03:08;21.00;91.20
26589;DHT22;14235;48.532;8.722;2023-06-10T09:05:38;21.00;91.10
26589;DHT22;14235;48.532;8.722;2023-06-10T09:08:14;21.10;91.30
26589;DHT22;14235;48.532;8.722;2023-06-10T09:10:41;21.10;91.70
26589;DHT22;14235;48.532;8.722;2023-06-10T09:13:06;21.20;91.30
26589;DHT22;14235;48.532;8.722;2023-06-10T09:15:35;21.20;90.70
26589;DHT22;14235;48.532;8.722;2023-06-10T09:18:06;21.30;91.10
26589;DHT22;14235;48.532;8.722;2023-06-10T09:20:32;21.30;90.90
26589;DHT22;14235;48.532;8.722;2023-06-10T09:23:00;21.40;91.00
26589;DHT22;14235;48.532;8.722;2023-06-10T09:25:36;21.50;90.60
26589;DHT22;14235;48.532;8.722;2023-06-10T09:28:13;21.50;90.80
26589;DHT22;14235;48.532;8.722;2023-06-10T09:30:39;21.50;90.30
26589;DHT22;14235;48.532;8.722;2023-06-10T09:33:11;21.60;90.70
26589;DHT22;14235;48.532;8.722;2023-06-10T09:35:48;21.70;90.40
26589;DHT22;14235;48.532;8.722;2023-06-10T09:38:21;21.80;90.80
26589;DHT22;14235;48.532;8.722;2023-06-10T09:40:56;21.90;90.70
26589;DHT22;14235;48.532;8.722;2023-06-10T09:43:22;21.90;92.20
26589;DHT22;14235;48.532;8.722;2023-06-10T09:45:51;22.00;94.10
26589;DHT22;14235;48.532;8.722;2023-06-10T09:48:22;22.10;93.50
26589;DHT22;14235;48.532;8.722;2023-06-10T09:50:49;22.20;93.10
26589;DHT22;14235;48.532;8.722;2023-06-10T09:53:17;22.20;91.60
26589;DHT22;14235;48.532;8.722;2023-06-10T09:55:45;22.40;92.70
26589;DHT22;14235;48.532;8.722;2023-06-10T09:58:11;22.40;90.70
26589;DHT22;14235;48.532;8.722;2023-06-10T10:00:37;22.40;90.80
26589;DHT22;14235;48.532;8.722;2023-06-10T10:03:02;22.40;89.90
26589;DHT22;14235;48.532;8.722;2023-06-10T10:05:36;22.40;89.60
26589;DHT22;14235;48.532;8.722;2023-06-10T10:08:01;22.40;90.80
26589;DHT22;14235;48.532;8.722;2023-06-10T10:10:29;22.50;92.00
26589;DHT22;14235;48.532;8.722;2023-06-10T10:12:56;22.60;91.80
26589;DHT22;14235;48.532;8.722;2023-06-10T10:15:25;22.70;91.30
26589;DHT22;14235;48.532;8.722;2023-06-10T10:18:10;22.80;91.60
26589;DHT22;14235;48.532;8.722;2023-06-10T10:20:48;23.00;91.70
26589;DHT22;14235;48.532;8.722;2023-06-10T10:23:24;23.00;91.20
26589;DHT22;14235;48.532;8.722;2023-06-10T10:25:52;23.10;88.90
26589;DHT22;14235;48.532;8.722;2023-06-10T10:28:20;23.10;88.10
26589;DHT22;14235;48.532;8.722;2023-06-10T10:30:50;23.20;89.30
26589;DHT22;14235;48.532;8.722;2023-06-10T10:33:29;23.20;92.80
26589;DHT22;14235;48.532;8.722;2023-06-10T10:35:58;23.30;92.20
26589;DHT22;14235;48.532;8.722;2023-06-10T10:38:24;23.40;89.30
26589;DHT22;14235;48.532;8.722;2023-06-10T10:40:50;23.50;89.20
26589;DHT22;14235;48.532;8.722;2023-06-10T10:43:17;23.50;90.00
26589;DHT22;14235;48.532;8.722;2023-06-10T10:45:46;23.50;88.90
26589;DHT22;14235;48.532;8.722;2023-06-10T10:48:12;23.50;87.80
26589;DHT22;14235;48.532;8.722;2023-06-10T10:50:39;23.40;92.60
26589;DHT22;14235;48.532;8.722;2023-06-10T10:53:23;23.40;92.10
26589;DHT22;14235;48.532;8.722;2023-06-10T10:56:05;23.50;90.70
26589;DHT22;14235;48.532;8.722;2023-06-10T10:58:39;23.50;89.40
26589;DHT22;14235;48.532;8.722;2023-06-10T11:01:13;23.50;92.10
26589;DHT22;14235;48.532;8.722;2023-06-10T11:03:43;23.50;90.80
26589;DHT22;14235;48.532;8.722;2023-06-10T11:06:13;23.60;91.70
26589;DHT22;14235;48.532;8.722;2023-06-10T11:11:23;23.70;90.80
26589;DHT22;14235;48.532;8.722;2023-06-10T11:16:39;23.90;90.40
26589;DHT22;14235;48.532;8.722;2023-06-10T11:19:05;24.00;92.90
26589;DHT22;14235;48.532;8.722;2023-06-10T11:21:31;24.10;87.60
26589;DHT22;14235;48.532;8.722;2023-06-10T11:24:13;24.20;92.00
26589;DHT22;14235;48.532;8.722;2023-06-10T11:26:44;24.30;93.40
26589;DHT22;14235;48.532;8.722;2023-06-10T11:31:42;24.30;90.10
26589;DHT22;14235;48.532;8.722;2023-06-10T11:34:08;24.40;86.60
26589;DHT22;14235;48.532;8.722;2023-06-10T11:36:39;24.40;84.90
26589;DHT22;14235;48.532;8.722;2023-06-10T11:39:06;24.50;83.60
26589;DHT22;14235;48.532;8.722;2023-06-10T11:41:36;24.50;87.10
26589;DHT22;14235;48.532;8.722;2023-06-10T11:44:27;24.60;80.70
26589;DHT22;14235;48.532;8.722;2023-06-10T11:46:56;24.70;90.20
26589;DHT22;14235;48.532;8.722;2023-06-10T11:49:22;24.70;88.50
26589;DHT22;14235;48.532;8.722;2023-06-10T11:51:47;24.70;88.60
26589;DHT22;14235;48.532;8.722;2023-06-10T11:54:17;24.80;89.90
26589;DHT22;14235;48.532;8.722;2023-06-10T11:56:43;24.80;88.90
26589;DHT22;14235;48.532;8.722;2023-06-10T11:59:08;25.00;89.80
26589;DHT22;14235;48.532;8.722;2023-06-10T12:01:43;25.10;85.60
26589;DHT22;14235;48.532;8.722;2023-06-10T12:04:11;25.20;87.70
26589;DHT22;14235;48.532;8.722;2023-06-10T12:06:52;25.20;86.80
26589;DHT22;14235;48.532;8.722;2023-06-10T12:09:24;25.30;87.50
26589;DHT22;14235;48.532;8.722;2023-06-10T12:14:50;25.40;88.10
26589;DHT22;14235;48.532;8.722;2023-06-10T12:19:58;25.70;92.00
26589;DHT22;14235;48.532;8.722;2023-06-10T12:22:27;25.80;93.10
26589;DHT22;14235;48.532;8.722;2023-06-10T12:27:32;26.00;93.50
26589;DHT22;14235;48.532;8.722;2023-06-10T12:30:03;26.10;70.50
26589;DHT22;14235;48.532;8.722;2023-06-10T12:35:06;26.30;67.80
26589;DHT22;14235;48.532;8.722;2023-06-10T12:37:32;26.40;66.00
26589;DHT22;14235;48.532;8.722;2023-06-10T12:40:01;26.40;69.00
26589;DHT22;14235;48.532;8.722;2023-06-10T12:42:28;26.40;69.40
26589;DHT22;14235;48.532;8.722;2023-06-10T12:44:55;26.40;69.20
26589;DHT22;14235;48.532;8.722;2023-06-10T12:47:32;26.40;67.80
26589;DHT22;14235;48.532;8.722;2023-06-10T12:50:00;26.40;67.90
26589;DHT22;14235;48.532;8.722;2023-06-10T12:52:26;26.40;66.50
26589;DHT22;14235;48.532;8.722;2023-06-10T12:54:53;26.30;68.20
26589;DHT22;14235;48.532;8.722;2023-06-10T12:57:19;26.20;68.70
26589;DHT22;14235;48.532;8.722;2023-06-10T12:59:45;26.00;68.40
26589;DHT22;14235;48.532;8.722;2023-06-10T13:02:16;26.00;68.50
26589;DHT22;14235;48.532;8.722;2023-06-10T13:04:45;26.20;68.70
26589;DHT22;14235;48.532;8.722;2023-06-10T13:07:11;26.30;68.30
26589;DHT22;14235;48.532;8.722;2023-06-10T13:09:36;26.40;67.80
26589;DHT22;14235;48.532;8.722;2023-06-10T13:12:02;26.60;67.50
26589;DHT22;14235;48.532;8.722;2023-06-10T13:14:28;26.70;65.90
26589;DHT22;14235;48.532;8.722;2023-06-10T13:16:55;26.80;64.90
26589;DHT22;14235;48.532;8.722;2023-06-10T13:19:21;26.90;64.30
26589;DHT22;14235;48.532;8.722;2023-06-10T13:21:49;26.90;65.40
26589;DHT22;14235;48.532;8.722;2023-06-10T13:24:15;26.90;64.90
26589;DHT22;14235;48.532;8.722;2023-06-10T13:26:41;26.90;68.20
26589;DHT22;14235;48.532;8.722;2023-06-10T13:29:06;26.90;77.40
26589;DHT22;14235;48.532;8.722;2023-06-10T13:31:33;26.80;75.00
26589;DHT22;14235;48.532;8.722;2023-06-10T13:33:59;26.70;77.20
26589;DHT22;14235;48.532;8.722;2023-06-10T13:36:25;26.50;80.90
26589;DHT22;14235;48.532;8.722;2023-06-10T13:38:50;26.40;79.00
26589;DHT22;14235;48.532;8.722;2023-06-10T13:41:16;26.40;77.60
26589;DHT22;14235;48.532;8.722;2023-06-10T13:43:42;26.50;79.80
26589;DHT22;14235;48.532;8.722;2023-06-10T13:46:08;26.60;80.20
26589;DHT22;14235;48.532;8.722;2023-06-10T13:48:33;26.90;82.10
26589;DHT22;14235;48.532;8.722;2023-06-10T13:53:26;27.30;86.30
26589;DHT22;14235;48.532;8.722;2023-06-10T13:58:17;27.70;87.20
26589;DHT22;14235;48.532;8.722;2023-06-10T14:03:09;28.00;82.70
26589;DHT22;14235;48.532;8.722;2023-06-10T14:05:35;27.80;90.30
26589;DHT22;14235;48.532;8.722;2023-06-10T14:08:01;27.90;81.70
26589;DHT22;14235;48.532;8.722;2023-06-10T14:10:26;27.90;80.20
26589;DHT22;14235;48.532;8.722;2023-06-10T14:12:52;28.10;83.70
26589;DHT22;14235;48.532;8.722;2023-06-10T14:15:17;28.30;79.40
26589;DHT22;14235;48.532;8.722;2023-06-10T14:17:43;28.60;74.40
26589;DHT22;14235;48.532;8.722;2023-06-10T14:20:09;28.60;77.60
26589;DHT22;14235;48.532;8.722;2023-06-10T14:22:35;28.60;75.30
26589;DHT22;14235;48.532;8.722;2023-06-10T14:25:00;28.80;71.50
26589;DHT22;14235;48.532;8.722;2023-06-10T14:27:26;28.90;78.90
26589;DHT22;14235;48.532;8.722;2023-06-10T14:29:51;29.10;70.00
26589;DHT22;14235;48.532;8.722;2023-06-10T14:37:12;29.70;75.80
26589;DHT22;14235;48.532;8.722;2023-06-10T14:42:04;29.90;76.00
26589;DHT22;14235;48.532;8.722;2023-06-10T14:44:30;29.70;70.00
26589;DHT22;14235;48.532;8.722;2023-06-10T14:46:56;29.60;69.20
26589;DHT22;14235;48.532;8.722;2023-06-10T14:49:22;29.60;67.80
26589;DHT22;14235;48.532;8.722;2023-06-10T14:54:15;30.30;48.90
26589;DHT22;14235;48.532;8.722;2023-06-10T14:56:41;30.30;50.40
26589;DHT22;14235;48.532;8.722;2023-06-10T14:59:06;30.60;50.00
26589;DHT22;14235;48.532;8.722;2023-06-10T15:01:32;30.80;49.90
26589;DHT22;14235;48.532;8.722;2023-06-10T15:03:57;30.60;50.10
26589;DHT22;14235;48.532;8.722;2023-06-10T15:06:23;30.90;50.60
26589;DHT22;14235;48.532;8.722;2023-06-10T15:08:49;31.50;49.70
26589;DHT22;14235;48.532;8.722;2023-06-10T15:11:15;32.00;54.30
26589;DHT22;14235;48.532;8.722;2023-06-10T15:13:40;33.30;60.40
26589;DHT22;14235;48.532;8.722;2023-06-10T15:18:32;36.00;50.90
26589;DHT22;14235;48.532;8.722;2023-06-10T15:23:24;38.60;52.90
26589;DHT22;14235;48.532;8.722;2023-06-10T15:25:50;38.80;47.30
26589;DHT22;14235;48.532;8.722;2023-06-10T15:28:15;39.50;44.40
26589;DHT22;14235;48.532;8.722;2023-06-10T15:30:41;39.60;46.30
26589;DHT22;14235;48.532;8.722;2023-06-10T15:33:07;38.30;43.40
26589;DHT22;14235;48.532;8.722;2023-06-10T15:35:33;36.70;44.40
26589;DHT22;14235;48.532;8.722;2023-06-10T15:37:58;35.50;46.10
26589;DHT22;14235;48.532;8.722;2023-06-10T15:40:24;34.40;47.00
26589;DHT22;14235;48.532;8.722;2023-06-10T15:42:51;33.40;49.30
26589;DHT22;14235;48.532;8.722;2023-06-10T15:45:16;32.70;49.80
26589;DHT22;14235;48.532;8.722;2023-06-10T15:47:42;32.00;50.30
26589;DHT22;14235;48.532;8.722;2023-06-10T15:50:08;31.40;51.60
26589;DHT22;14235;48.532;8.722;2023-06-10T15:52:34;30.80;52.50
26589;DHT22;14235;48.532;8.722;2023-06-10T15:55:00;30.40;54.20
26589;DHT22;14235;48.532;8.722;2023-06-10T15:57:25;30.00;55.20
26589;DHT22;14235;48.532;8.722;2023-06-10T15:59:51;29.70;56.00
26589;DHT22;14235;48.532;8.722;2023-06-10T16:02:17;29.90;56.20
26589;DHT22;14235;48.532;8.722;2023-06-10T16:04:42;31.00;55.40
26589;DHT22;14235;48.532;8.722;2023-06-10T16:07:08;32.70;53.00
26589;DHT22;14235;48.532;8.722;2023-06-10T16:09:33;34.60;50.70
26589;DHT22;14235;48.532;8.722;2023-06-10T16:14:26;37.60;34.60
26589;DHT22;14235;48.532;8.722;2023-06-10T16:16:52;38.90;33.20
26589;DHT22;14235;48.532;8.722;2023-06-10T16:19:17;39.80;31.80
26589;DHT22;14235;48.532;8.722;2023-06-10T16:21:43;39.80;31.90
26589;DHT22;14235;48.532;8.722;2023-06-10T16:24:09;40.20;30.00
26589;DHT22;14235;48.532;8.722;2023-06-10T16:26:34;40.90;29.80
26589;DHT22;14235;48.532;8.722;2023-06-10T16:29:00;41.00;32.50
26589;DHT22;14235;48.532;8.722;2023-06-10T16:31:26;41.00;33.60
26589;DHT22;14235;48.532;8.722;2023-06-10T16:33:51;41.10;30.20
26589;DHT22;14235;48.532;8.722;2023-06-10T16:46:01;35.80;57.70
26589;DHT22;14235;48.532;8.722;2023-06-10T16:48:26;34.90;52.20
26589;DHT22;14235;48.532;8.722;2023-06-10T16:50:52;33.90;54.60
26589;DHT22;14235;48.532;8.722;2023-06-10T16:53:18;33.10;58.90
26589;DHT22;14235;48.532;8.722;2023-06-10T16:55:43;33.30;49.70
26589;DHT22;14235;48.532;8.722;2023-06-10T16:58:09;33.00;47.80
26589;DHT22;14235;48.532;8.722;2023-06-10T17:00:34;32.90;49.10
26589;DHT22;14235;48.532;8.722;2023-06-10T17:03:00;32.60;47.20
26589;DHT22;14235;48.532;8.722;2023-06-10T17:05:26;32.10;42.90
26589;DHT22;14235;48.532;8.722;2023-06-10T17:07:51;31.70;43.00
26589;DHT22;14235;48.532;8.722;2023-06-10T17:10:17;31.40;44.70
26589;DHT22;14235;48.532;8.722;2023-06-10T17:12:43;31.10;51.80
26589;DHT22;14235;48.532;8.722;2023-06-10T17:15:08;30.80;49.50
26589;DHT22;14235;48.532;8.722;2023-06-10T17:17:34;30.50;52.70
26589;DHT22;14235;48.532;8.722;2023-06-10T17:22:26;30.20;45.10
26589;DHT22;14235;48.532;8.722;2023-06-10T17:24:51;30.10;45.20